Time;durP1;ratioP1;P1;durP2;ratioP2;P2;SDS_P1;SDS_P2;PMS_P1;PMS_P2;Temp;Humidity;BMP_temperature;BMP_pressure;BME280_temperature;BME280_humidity;BME280_pressure;Samples;Min_cycle;Max_cycle;Signal;HPM_P1;HPM_P2
2021/07/13 00:00:36;;;;;;;9.17;7.83;;;;;;;20.49;100.00;94667.72;10573802;28;20095;-77
2021/07/13 00:05:38;;;;;;;9.85;7.80;;;;;;;20.53;100.00;94670.59;10572699;28;20273;-77
2021/07/13 00:10:41;;;;;;;11.10;7.88;;;;;;;20.50;100.00;94682.19;10572386;28;20024;-77
2021/07/13 00:15:43;;;;;;;11.80;8.70;;;;;;;20.38;100.00;94679.41;10572053;28;20066;-77
2021/07/13 00:20:44;;;;;;;15.02;8.32;;;;;;;20.31;100.00;94685.41;10571638;28;20068;-77
2021/07/13 00:25:44;;;;;;;11.73;8.30;;;;;;;20.37;100.00;94691.47;10571441;28;20047;-77
2021/07/13 00:30:45;;;;;;;13.27;8.60;;;;;;;20.37;100.00;94688.72;10571066;28;20072;-77
2021/07/13 00:35:45;;;;;;;9.63;7.40;;;;;;;20.29;100.00;94702.13;10572060;28;20302;-77
2021/07/13 00:40:45;;;;;;;15.00;8.83;;;;;;;20.32;100.00;94696.00;10572201;28;20019;-77
2021/07/13 00:45:46;;;;;;;14.80;9.05;;;;;;;20.32;100.00;94693.28;10569787;28;20081;-76
2021/07/13 00:50:47;;;;;;;12.20;8.57;;;;;;;20.13;100.00;94693.75;10570606;28;20093;-77
2021/07/13 00:55:47;;;;;;;11.85;8.07;;;;;;;20.13;100.00;94692.97;10547845;28;20273;-77
2021/07/13 01:00:48;;;;;;;10.13;7.83;;;;;;;20.02;100.00;94691.78;10568547;28;20016;-77
2021/07/13 01:05:50;;;;;;;13.02;9.43;;;;;;;19.91;100.00;94696.84;10571480;28;20100;-77
2021/07/13 01:11:14;;;;;;;11.13;8.48;;;;;;;19.73;100.00;94686.06;10571276;28;20023;-77
2021/07/13 01:16:27;;;;;;;11.20;8.50;;;;;;;19.77;100.00;94683.47;10570149;28;20398;-78
2021/07/13 01:21:30;;;;;;;12.50;9.32;;;;;;;19.82;100.00;94680.56;10568845;28;20026;-77
2021/07/13 01:26:42;;;;;;;13.90;8.70;;;;;;;19.88;100.00;94676.50;10569040;28;20054;-77
2021/07/13 01:31:47;;;;;;;16.65;8.80;;;;;;;19.86;100.00;94686.94;10568953;28;20475;-77
2021/07/13 01:36:52;;;;;;;12.07;9.88;;;;;;;19.70;100.00;94688.66;10551797;28;20390;-77
2021/07/13 01:41:55;;;;;;;13.15;9.02;;;;;;;19.61;100.00;94708.59;10570196;28;20032;-77
2021/07/13 01:46:55;;;;;;;21.05;9.93;;;;;;;19.59;100.00;94699.97;10569777;28;20023;-77
2021/07/13 01:51:56;;;;;;;12.23;9.32;;;;;;;19.73;100.00;94696.97;10569189;28;20024;-77
2021/07/13 01:56:58;;;;;;;13.88;9.55;;;;;;;19.82;100.00;94701.59;10570656;28;20020;-77
2021/07/13 02:02:02;;;;;;;18.48;10.02;;;;;;;19.90;100.00;94687.88;10552797;28;20764;-76
2021/07/13 02:07:04;;;;;;;12.93;8.65;;;;;;;19.92;100.00;94696.50;10550698;28;20538;-76
2021/07/13 02:12:05;;;;;;;10.38;8.35;;;;;;;19.78;100.00;94695.97;10568962;28;20031;-76
2021/07/13 02:17:06;;;;;;;11.90;8.82;;;;;;;19.65;100.00;94692.38;10569260;28;20024;-76
2021/07/13 02:22:07;;;;;;;12.13;9.25;;;;;;;19.57;100.00;94702.19;10576558;28;20120;-76
2021/07/13 02:27:15;;;;;;;12.30;9.00;;;;;;;19.49;100.00;94697.59;10576490;28;20019;-76
2021/07/13 02:32:23;;;;;;;13.90;8.07;;;;;;;19.51;100.00;94697.28;10576151;28;20059;-76
2021/07/13 02:37:25;;;;;;;18.52;8.90;;;;;;;19.60;100.00;94696.09;10557531;28;20122;-76
2021/07/13 02:42:26;;;;;;;20.05;8.18;;;;;;;19.62;100.00;94701.22;10576174;28;20897;-77
2021/07/13 02:47:27;;;;;;;14.23;8.95;;;;;;;19.54;100.00;94700.16;10578290;28;20030;-77
2021/07/13 02:52:30;;;;;;;17.42;9.15;;;;;;;19.55;100.00;94696.31;10578221;28;20047;-77
2021/07/13 02:57:31;;;;;;;11.75;9.23;;;;;;;19.54;100.00;94696.63;10573368;28;20028;-77
2021/07/13 03:02:32;;;;;;;13.80;9.50;;;;;;;19.39;100.00;94696.06;10571511;28;20031;-77
2021/07/13 03:07:33;;;;;;;15.02;9.63;;;;;;;19.37;100.00;94689.34;10573309;28;20443;-76
2021/07/13 03:12:34;;;;;;;20.20;10.52;;;;;;;19.42;100.00;94698.16;10589124;27;20033;-77
2021/07/13 03:17:34;;;;;;;17.40;11.70;;;;;;;19.47;100.00;94700.66;10590767;27;20129;-77
2021/07/13 03:22:40;;;;;;;20.23;10.18;;;;;;;19.53;100.00;94704.00;10574928;28;20499;-77
2021/07/13 03:27:41;;;;;;;14.40;10.50;;;;;;;19.42;100.00;94700.06;10573990;28;20051;-77
2021/07/13 03:32:42;;;;;;;15.85;11.93;;;;;;;19.29;100.00;94697.25;10575004;28;20024;-77
2021/07/13 03:37:43;;;;;;;14.57;10.50;;;;;;;19.28;100.00;94705.75;10573909;28;20020;-76
2021/07/13 03:42:45;;;;;;;18.80;11.02;;;;;;;19.34;100.00;94703.63;10573483;28;20058;-76
2021/07/13 03:47:47;;;;;;;17.98;10.75;;;;;;;19.25;100.00;94699.03;10574315;28;20068;-77
2021/07/13 03:52:47;;;;;;;17.35;10.35;;;;;;;19.21;100.00;94705.47;10572285;28;20032;-76
2021/07/13 03:57:49;;;;;;;18.15;11.48;;;;;;;19.22;100.00;94705.16;10572204;28;20027;-76
2021/07/13 04:02:49;;;;;;;14.32;9.68;;;;;;;19.17;100.00;94710.78;10573687;28;20451;-77
2021/07/13 04:07:50;;;;;;;16.23;9.77;;;;;;;19.25;100.00;94709.13;10574655;28;20030;-77
2021/07/13 04:12:50;;;;;;;15.83;10.20;;;;;;;19.42;100.00;94710.97;10573919;28;20571;-77
2021/07/13 04:17:50;;;;;;;15.67;10.30;;;;;;;19.50;100.00;94707.38;10573580;28;20270;-77
2021/07/13 04:22:51;;;;;;;13.80;9.40;;;;;;;19.67;100.00;94705.69;10571038;28;20074;-76
2021/07/13 04:27:51;;;;;;;24.77;9.43;;;;;;;19.87;100.00;94704.91;10571783;28;20285;-76
2021/07/13 04:32:51;;;;;;;17.70;10.93;;;;;;;20.16;100.00;94697.75;10571749;28;20070;-77
2021/07/13 04:37:52;;;;;;;16.33;10.77;;;;;;;20.40;100.00;94696.25;10582909;27;20035;-76
2021/07/13 04:42:52;;;;;;;15.83;10.77;;;;;;;20.60;100.00;94691.88;10583463;27;20050;-76
2021/07/13 04:47:53;;;;;;;20.98;10.80;;;;;;;20.76;100.00;94678.38;10571472;27;20027;-76
2021/07/13 04:52:53;;;;;;;17.80;9.87;;;;;;;21.02;100.00;94688.22;10611640;27;20030;-76
2021/07/13 04:57:54;;;;;;;16.85;10.10;;;;;;;21.63;100.00;94681.94;10611455;27;20281;-76
2021/07/13 05:02:54;;;;;;;17.38;9.73;;;;;;;22.27;100.00;94684.88;10569429;27;20059;-76
2021/07/13 05:07:55;;;;;;;15.70;9.83;;;;;;;22.81;100.00;94681.63;10610340;27;20050;-76
2021/07/13 05:12:55;;;;;;;15.53;10.13;;;;;;;23.45;100.00;94691.81;10610286;27;21188;-76
2021/07/13 05:17:55;;;;;;;12.60;9.20;;;;;;;24.01;100.00;94687.97;10610590;27;20035;-75
2021/07/13 05:23:00;;;;;;;11.63;9.17;;;;;;;24.25;100.00;94697.06;10610008;27;20050;-75
2021/07/13 05:28:01;;;;;;;21.98;8.93;;;;;;;24.54;99.38;94695.66;10609922;27;20039;-75
2021/07/13 05:33:01;;;;;;;15.90;9.60;;;;;;;25.04;98.21;94693.03;10610139;28;20062;-75
2021/07/13 05:38:02;;;;;;;12.50;8.63;;;;;;;25.53;91.74;94686.75;10610171;28;20037;-75
2021/07/13 05:43:03;;;;;;;13.13;8.25;;;;;;;25.92;89.01;94678.25;10610329;27;20793;-75
2021/07/13 05:48:03;;;;;;;12.75;7.90;;;;;;;26.40;84.37;94682.41;10609225;28;20027;-75
2021/07/13 05:53:04;;;;;;;13.80;8.52;;;;;;;26.91;80.61;94690.03;10613840;27;20042;-76
2021/07/13 05:58:04;;;;;;;15.57;8.50;;;;;;;27.42;77.97;94685.78;10618278;27;20031;-75
2021/07/13 06:03:04;;;;;;;13.33;7.97;;;;;;;28.09;71.51;94692.13;10617820;27;20770;-75
2021/07/13 06:08:05;;;;;;;11.33;8.00;;;;;;;28.91;66.57;94687.28;10618371;27;20030;-75
2021/07/13 06:13:05;;;;;;;13.63;7.60;;;;;;;28.89;63.03;94687.66;10619807;27;20031;-76
2021/07/13 06:18:06;;;;;;;15.70;8.23;;;;;;;30.21;59.16;94676.09;10618263;27;20292;-75
2021/07/13 06:23:06;;;;;;;9.23;6.88;;;;;;;30.96;51.97;94672.16;10607062;27;20057;-75
2021/07/13 06:28:07;;;;;;;14.60;7.73;;;;;;;31.58;48.86;94678.03;10576900;28;20092;-75
2021/07/13 06:33:07;;;;;;;10.90;6.65;;;;;;;32.09;46.44;94670.78;10577259;28;20469;-76
2021/07/13 06:38:08;;;;;;;8.98;6.68;;;;;;;32.64;44.93;94673.72;10579021;28;20696;-77
2021/07/13 06:43:08;;;;;;;10.53;6.20;;;;;;;32.83;42.89;94667.50;10576333;28;20035;-75
2021/07/13 06:48:09;;;;;;;9.07;5.85;;;;;;;33.28;41.82;94674.84;10575222;28;20032;-76
2021/07/13 06:53:09;;;;;;;15.20;5.73;;;;;;;33.03;42.36;94681.56;10557971;28;20035;-75
2021/07/13 06:58:10;;;;;;;8.00;5.35;;;;;;;33.53;40.66;94679.19;10515435;28;20096;-76
2021/07/13 07:03:10;;;;;;;8.23;5.17;;;;;;;33.81;39.72;94675.16;10533172;28;20915;-75
2021/07/13 07:08:11;;;;;;;13.53;6.37;;;;;;;34.39;38.09;94665.72;10515192;28;20270;-76
2021/07/13 07:13:11;;;;;;;16.03;6.23;;;;;;;35.00;38.29;94658.00;10533221;28;20023;-76
2021/07/13 07:18:11;;;;;;;15.23;6.77;;;;;;;35.45;37.29;94649.00;10533660;28;20047;-76
2021/07/13 07:23:12;;;;;;;10.50;5.63;;;;;;;36.46;36.44;94639.94;10532293;28;20108;-76
2021/07/13 07:28:12;;;;;;;17.27;6.87;;;;;;;35.86;35.62;94636.34;10539521;28;20430;-76
2021/07/13 07:33:13;;;;;;;12.27;6.60;;;;;;;35.92;36.16;94631.03;10533488;28;20032;-76
2021/07/13 07:38:13;;;;;;;12.17;6.13;;;;;;;35.52;37.71;94632.03;10542143;28;20032;-76
2021/07/13 07:43:14;;;;;;;10.65;6.10;;;;;;;37.01;34.37;94629.47;10536067;28;20035;-75
2021/07/13 07:48:14;;;;;;;8.80;5.57;;;;;;;37.00;33.04;94629.94;10570877;28;20030;-75
2021/07/13 07:53:14;;;;;;;12.70;6.32;;;;;;;37.80;32.16;94626.09;10530323;28;20289;-76
2021/07/13 07:58:15;;;;;;;10.20;5.13;;;;;;;38.68;31.34;94616.91;10530108;28;20467;-77
2021/07/13 08:03:15;;;;;;;9.02;5.40;;;;;;;38.90;30.46;94618.91;10529980;28;20056;-75
2021/07/13 08:08:16;;;;;;;10.97;4.50;;;;;;;40.17;26.55;94617.28;10530056;28;20048;-77
2021/07/13 08:13:16;;;;;;;10.20;4.60;;;;;;;40.33;26.62;94609.28;10535333;28;20035;-76
2021/07/13 08:18:19;;;;;;;10.77;4.70;;;;;;;41.40;26.07;94610.34;10540652;28;20032;-77
2021/07/13 08:23:19;;;;;;;14.98;5.72;;;;;;;41.50;26.48;94617.50;10534560;28;20070;-75
2021/07/13 08:28:20;;;;;;;11.40;5.50;;;;;;;40.09;26.19;94614.00;10530511;28;20143;-74
2021/07/13 08:33:20;;;;;;;12.20;5.03;;;;;;;40.61;25.74;94612.06;10533467;28;20028;-75
2021/07/13 08:38:21;;;;;;;12.57;4.97;;;;;;;40.66;25.42;94602.97;10515756;28;20153;-76
2021/07/13 08:43:23;;;;;;;14.87;4.93;;;;;;;41.09;25.71;94599.38;10533607;28;20031;-75
2021/07/13 08:48:24;;;;;;;8.45;4.82;;;;;;;41.30;26.18;94601.13;10533210;28;20020;-75
2021/07/13 08:53:25;;;;;;;12.15;5.20;;;;;;;41.63;24.36;94593.91;10535115;28;20028;-76
2021/07/13 08:58:26;;;;;;;10.45;4.80;;;;;;;41.72;24.23;94590.25;10527911;28;20024;-76
2021/07/13 09:03:30;;;;;;;9.30;4.82;;;;;;;41.86;24.44;94586.69;10544607;28;20039;-75
2021/07/13 09:08:34;;;;;;;11.50;5.50;;;;;;;41.51;24.56;94590.06;10541151;28;20036;-76
2021/07/13 09:13:46;;;;;;;8.57;4.78;;;;;;;40.60;26.06;94590.00;10552631;28;20031;-76
2021/07/13 09:18:52;;;;;;;9.52;5.22;;;;;;;40.25;25.80;94587.56;10550184;28;20104;-76
2021/07/13 09:23:59;;;;;;;6.78;4.78;;;;;;;42.09;25.26;94602.03;10584235;27;20050;-76
2021/07/13 09:28:59;;;;;;;10.63;5.07;;;;;;;43.14;24.51;94590.75;10608102;27;20039;-76
2021/07/13 09:34:00;;;;;;;8.60;4.67;;;;;;;44.53;22.39;94585.72;10591660;28;20027;-76
2021/07/13 09:39:01;;;;;;;10.57;5.10;;;;;;;43.79;22.29;94584.13;10609366;28;20035;-76
2021/07/13 09:44:10;;;;;;;11.30;4.50;;;;;;;44.46;22.20;94580.50;10611023;27;20091;-76
2021/07/13 09:49:24;;;;;;;15.60;4.78;;;;;;;44.07;23.21;94572.38;10610535;28;20066;-76
2021/07/13 09:54:29;;;;;;;13.10;4.87;;;;;;;45.11;22.10;94574.34;10610651;27;20039;-76
2021/07/13 09:59:29;;;;;;;7.55;4.18;;;;;;;46.01;19.99;94574.06;10610106;28;20032;-76
2021/07/13 10:04:32;;;;;;;6.33;3.93;;;;;;;45.94;20.27;94577.38;10610068;28;20027;-76
2021/07/13 10:09:36;;;;;;;6.20;3.90;;;;;;;45.18;19.76;94558.94;10609918;28;20332;-76
2021/07/13 10:14:41;;;;;;;5.57;3.78;;;;;;;45.08;20.31;94552.69;10610324;28;20063;-76
2021/07/13 10:19:49;;;;;;;12.55;4.40;;;;;;;45.78;20.71;94550.44;10610062;28;20023;-77
2021/07/13 10:24:54;;;;;;;8.27;3.95;;;;;;;46.13;19.72;94549.28;10609519;28;20427;-76
2021/07/13 10:30:00;;;;;;;10.95;3.95;;;;;;;46.22;19.44;94542.56;10609353;28;20062;-76
2021/07/13 10:35:27;;;;;;;8.73;3.65;;;;;;;47.64;18.25;94540.38;10611287;27;20023;-76
2021/07/13 10:40:27;;;;;;;6.55;3.65;;;;;;;47.65;18.24;94544.03;10614136;27;20030;-77
2021/07/13 10:45:29;;;;;;;5.63;3.10;;;;;;;48.11;16.44;94536.03;10616483;27;20838;-76
2021/07/13 10:50:30;;;;;;;6.30;3.00;;;;;;;48.27;16.39;94534.38;10631026;27;20099;-77
2021/07/13 10:55:30;;;;;;;7.45;3.20;;;;;;;44.99;18.86;94519.59;10616524;27;20526;-77
2021/07/13 11:00:58;;;;;;;5.07;3.60;;;;;;;45.17;18.25;94526.16;10616431;27;20034;-76
2021/07/13 11:06:00;;;;;;;8.05;3.38;;;;;;;44.06;18.91;94517.00;10616742;27;20059;-76
2021/07/13 11:11:01;;;;;;;5.32;3.50;;;;;;;42.32;20.30;94510.03;10616818;27;20067;-76
2021/07/13 11:16:02;;;;;;;10.70;4.72;;;;;;;39.73;23.21;94498.19;10616666;27;20847;-76
2021/07/13 11:21:19;;;;;;;8.80;4.70;;;;;;;38.14;24.79;94509.44;10616943;27;20027;-76
2021/07/13 11:26:21;;;;;;;7.45;5.30;;;;;;;37.52;25.68;94499.66;10616671;27;20047;-76
2021/07/13 11:31:24;;;;;;;8.50;5.60;;;;;;;36.92;25.48;94497.69;10598183;27;20070;-76
2021/07/13 11:36:35;;;;;;;13.45;6.88;;;;;;;36.33;26.20;94499.97;10615990;27;20110;-76
2021/07/13 11:41:36;;;;;;;7.15;5.55;;;;;;;35.39;26.40;94489.44;10613887;27;20084;-76
2021/07/13 11:46:39;;;;;;;9.10;6.07;;;;;;;35.36;27.38;94490.34;10614668;27;20031;-76
2021/07/13 11:52:00;;;;;;;8.90;4.88;;;;;;;35.37;27.36;94491.09;10615838;27;20035;-76
2021/07/13 11:57:04;;;;;;;7.32;5.63;;;;;;;34.90;29.04;94483.91;10615929;27;20027;-76
2021/07/13 12:02:07;;;;;;;17.00;5.43;;;;;;;34.56;27.91;94482.34;10615803;27;20027;-76
2021/07/13 12:07:08;;;;;;;8.38;4.90;;;;;;;34.27;28.81;94469.03;10613882;27;20027;-76
2021/07/13 12:12:17;;;;;;;10.50;5.25;;;;;;;34.20;28.08;94483.97;10614567;27;20038;-77
2021/07/13 12:17:20;;;;;;;8.25;4.60;;;;;;;33.92;28.33;94473.44;10614934;27;20698;-76
2021/07/13 12:22:22;;;;;;;8.63;5.50;;;;;;;34.23;29.41;94462.75;10614267;27;20043;-76
2021/07/13 12:27:23;;;;;;;9.63;5.00;;;;;;;34.31;28.12;94469.75;10614417;27;20038;-76
2021/07/13 12:32:27;;;;;;;11.40;4.93;;;;;;;34.30;28.49;94451.47;10613464;27;20492;-76
2021/07/13 12:37:29;;;;;;;7.47;5.30;;;;;;;34.42;27.19;94452.00;10612697;27;20060;-77
2021/07/13 12:42:33;;;;;;;10.35;5.07;;;;;;;34.35;27.29;94452.97;10612101;27;20054;-77
2021/07/13 12:47:36;;;;;;;12.32;5.70;;;;;;;34.38;27.44;94452.88;10613829;27;20062;-77
2021/07/13 12:52:40;;;;;;;10.73;4.63;;;;;;;34.46;27.95;94453.47;10612867;27;20063;-77
2021/07/13 12:57:49;;;;;;;5.53;4.93;;;;;;;34.49;27.47;94452.59;10613598;27;20055;-77
2021/07/13 13:03:06;;;;;;;9.02;5.68;;;;;;;34.39;28.45;94448.84;10611873;27;20488;-77
2021/07/13 13:08:10;;;;;;;;;;;;;;;34.33;27.16;94449.81;10612726;27;20023;-77
2021/07/13 13:13:23;;;;;;;7.38;5.00;;;;;;;33.98;26.19;94452.97;10612190;27;19911;-77
2021/07/13 13:18:25;;;;;;;6.90;4.28;;;;;;;33.76;26.33;94444.28;10612923;27;20104;-76
2021/07/13 13:23:29;;;;;;;8.68;4.13;;;;;;;33.73;25.38;94439.56;10612631;27;20051;-77
2021/07/13 13:28:30;;;;;;;9.30;4.35;;;;;;;33.60;24.96;94449.78;10612838;27;20406;-77
2021/07/13 13:33:32;;;;;;;5.30;4.57;;;;;;;33.53;24.85;94439.56;10611877;27;20031;-77
2021/07/13 13:38:45;;;;;;;7.55;4.38;;;;;;;33.19;24.80;94433.03;10611760;28;20027;-77
2021/07/13 13:43:45;;;;;;;7.00;4.82;;;;;;;32.97;25.19;94437.44;10592457;27;20038;-76
2021/07/13 13:48:45;;;;;;;8.05;4.70;;;;;;;32.82;26.77;94432.16;10611788;27;20482;-77
2021/07/13 13:53:46;;;;;;;7.07;4.17;;;;;;;32.74;25.07;94438.25;10610183;27;20023;-76
2021/07/13 13:58:47;;;;;;;7.43;3.93;;;;;;;32.68;25.09;94432.38;10609994;28;20026;-76
2021/07/13 14:03:48;;;;;;;8.40;5.90;;;;;;;32.78;29.59;94431.44;10611314;28;20042;-77
2021/07/13 14:08:49;;;;;;;11.32;5.82;;;;;;;32.74;30.43;94439.06;10611789;28;20482;-76
2021/07/13 14:13:50;;;;;;;9.43;5.30;;;;;;;32.71;28.44;94432.34;10613077;27;20162;-76
2021/07/13 14:18:50;;;;;;;8.03;5.13;;;;;;;32.61;31.18;94427.72;10619028;27;20093;-76
2021/07/13 14:23:51;;;;;;;8.47;6.57;;;;;;;32.40;31.13;94434.41;10634148;27;20296;-76
2021/07/13 14:28:51;;;;;;;13.07;6.03;;;;;;;32.18;31.42;94432.00;10616593;27;20382;-76
2021/07/13 14:33:52;;;;;;;14.07;6.80;;;;;;;32.14;32.98;94433.28;10618461;27;20453;-77
2021/07/13 14:38:52;;;;;;;9.85;6.47;;;;;;;32.00;33.43;94439.81;10618297;27;20444;-76
2021/07/13 14:43:53;;;;;;;6.80;6.10;;;;;;;31.88;33.93;94427.25;10617750;27;20100;-76
2021/07/13 14:48:53;;;;;;;11.88;6.10;;;;;;;31.79;33.21;94427.78;10617290;27;20049;-77
2021/07/13 14:53:53;;;;;;;8.53;5.70;;;;;;;31.74;32.84;94428.25;10617404;27;20090;-76
2021/07/13 14:58:54;;;;;;;12.20;6.53;;;;;;;31.68;33.06;94418.81;10618130;27;20443;-76
2021/07/13 15:03:54;;;;;;;10.55;6.00;;;;;;;31.52;33.26;94413.81;10617576;27;20027;-76
2021/07/13 15:08:55;;;;;;;10.15;6.45;;;;;;;31.50;33.47;94414.22;10617062;27;20030;-76
2021/07/13 15:13:55;;;;;;;9.63;6.87;;;;;;;31.44;33.48;94410.34;10616727;27;20466;-76
2021/07/13 15:18:55;;;;;;;12.27;6.10;;;;;;;31.41;33.05;94408.41;10617174;27;20027;-76
2021/07/13 15:23:56;;;;;;;7.83;6.07;;;;;;;31.41;33.50;94418.72;10597852;27;20104;-76
2021/07/13 15:28:56;;;;;;;14.30;6.50;;;;;;;31.28;35.68;94407.38;10617326;27;20039;-76
2021/07/13 15:34:00;;;;;;;10.30;6.87;;;;;;;31.15;36.63;94409.94;10617050;27;20031;-77
2021/07/13 15:39:01;;;;;;;10.02;6.43;;;;;;;31.17;36.98;94402.75;10616546;27;20046;-77
2021/07/13 15:44:01;;;;;;;9.10;6.83;;;;;;;31.12;36.68;94414.31;10616128;27;20113;-77
2021/07/13 15:49:02;;;;;;;16.97;6.83;;;;;;;31.07;37.09;94411.97;10613886;27;20038;-77
2021/07/13 15:54:02;;;;;;;10.20;6.55;;;;;;;31.09;37.59;94412.38;10596548;27;20047;-77
2021/07/13 15:59:03;;;;;;;9.40;7.18;;;;;;;30.96;37.29;94414.06;10615694;27;20040;-76
2021/07/13 16:04:03;;;;;;;11.83;6.50;;;;;;;30.85;37.96;94414.97;10614976;27;20033;-77
2021/07/13 16:09:04;;;;;;;10.45;6.22;;;;;;;30.75;37.69;94418.63;10615134;27;20023;-76
2021/07/13 16:14:08;;;;;;;11.82;6.72;;;;;;;30.04;39.80;94414.47;10615606;27;20746;-76
2021/07/13 16:19:08;;;;;;;8.40;6.57;;;;;;;29.14;43.85;94416.47;10614657;27;20130;-76
2021/07/13 16:24:09;;;;;;;10.10;7.70;;;;;;;29.27;42.44;94411.31;10613872;27;20051;-76
2021/07/13 16:29:09;;;;;;;13.80;8.90;;;;;;;29.63;41.14;94416.69;10613968;27;20045;-76
2021/07/13 16:34:10;;;;;;;10.40;7.57;;;;;;;29.83;41.75;94421.72;10613881;27;20284;-76
2021/07/13 16:39:11;;;;;;;13.85;8.77;;;;;;;29.99;41.75;94426.78;10612745;27;20051;-76
2021/07/13 16:44:12;;;;;;;11.00;8.30;;;;;;;30.10;42.80;94432.25;10629590;27;20030;-76
2021/07/13 16:49:12;;;;;;;11.27;7.70;;;;;;;30.03;42.55;94432.28;10594145;27;20041;-76
2021/07/13 16:54:13;;;;;;;16.00;8.10;;;;;;;30.03;43.25;94441.41;10612022;27;20050;-76
2021/07/13 16:59:14;;;;;;;16.50;8.35;;;;;;;30.03;42.61;94440.59;10612740;27;20218;-76
2021/07/13 17:04:14;;;;;;;12.60;8.23;;;;;;;29.90;42.24;94435.53;10612397;27;20027;-76
2021/07/13 17:09:16;;;;;;;15.60;9.20;;;;;;;29.81;43.05;94430.44;10611888;27;20137;-76
2021/07/13 17:14:16;;;;;;;18.52;9.32;;;;;;;29.77;42.64;94434.41;10611613;27;20029;-76
2021/07/13 17:19:17;;;;;;;13.75;9.52;;;;;;;29.65;42.71;94455.84;10611387;27;20031;-76
2021/07/13 17:24:17;;;;;;;20.45;10.05;;;;;;;29.59;43.12;94457.44;10610541;27;20502;-76
2021/07/13 17:29:17;;;;;;;17.40;10.20;;;;;;;29.47;43.04;94458.72;10611906;27;20401;-76
2021/07/13 17:34:18;;;;;;;17.70;9.10;;;;;;;29.41;42.91;94459.50;10570029;28;20098;-76
2021/07/13 17:39:18;;;;;;;15.00;8.43;;;;;;;29.20;42.76;94463.13;10592351;28;20028;-76
2021/07/13 17:44:19;;;;;;;13.93;8.23;;;;;;;29.11;42.33;94464.34;10566685;28;20475;-76
2021/07/13 17:49:19;;;;;;;18.23;9.07;;;;;;;29.05;43.51;94470.66;10586620;27;20044;-76
2021/07/13 17:54:20;;;;;;;12.57;8.63;;;;;;;28.98;45.82;94477.81;10575942;27;20795;-76
2021/07/13 17:59:20;;;;;;;14.57;8.57;;;;;;;28.71;47.99;94479.44;10549279;28;20043;-76
2021/07/13 18:04:23;;;;;;;14.93;9.47;;;;;;;28.68;49.72;94474.69;10533722;28;20417;-76
2021/07/13 18:09:24;;;;;;;15.20;8.35;;;;;;;28.58;51.84;94479.81;10533686;28;20321;-76
2021/07/13 18:14:24;;;;;;;11.83;8.70;;;;;;;28.52;53.06;94491.66;10533397;28;20102;-76
2021/07/13 18:19:24;;;;;;;11.47;7.80;;;;;;;28.35;52.79;94493.22;10533023;28;20316;-76
2021/07/13 18:24:25;;;;;;;13.93;8.77;;;;;;;28.20;55.54;94507.03;10567595;27;20036;-76
2021/07/13 18:29:25;;;;;;;13.50;8.27;;;;;;;28.12;56.67;94509.00;10569165;27;20054;-76
2021/07/13 18:34:26;;;;;;;19.33;8.98;;;;;;;27.97;57.93;94510.13;10555933;27;20039;-76
2021/07/13 18:39:26;;;;;;;11.73;7.77;;;;;;;27.85;57.35;94521.53;10576050;28;20020;-76
2021/07/13 18:44:26;;;;;;;13.70;8.07;;;;;;;27.73;56.91;94519.91;10585350;27;20038;-76
2021/07/13 18:49:27;;;;;;;12.53;8.10;;;;;;;27.63;58.28;94529.75;10581746;27;20030;-76
2021/07/13 18:54:27;;;;;;;11.60;8.60;;;;;;;27.53;58.29;94542.31;10513151;28;20273;-77
2021/07/13 18:59:28;;;;;;;8.97;7.77;;;;;;;27.49;58.43;94547.03;10572489;28;20110;-80
2021/07/13 19:04:29;;;;;;;12.40;8.23;;;;;;;27.29;60.14;94554.75;10575492;28;20031;-76
2021/07/13 19:09:29;;;;;;;19.67;8.80;;;;;;;27.29;62.68;94557.53;10571988;28;20027;-76
2021/07/13 19:14:29;;;;;;;12.23;8.50;;;;;;;27.12;65.50;94562.53;10575843;27;20091;-76
2021/07/13 19:19:30;;;;;;;10.15;7.57;;;;;;;26.96;66.34;94559.31;10567609;28;20087;-75
2021/07/13 19:24:31;;;;;;;12.77;8.57;;;;;;;26.78;68.57;94562.69;10555792;28;20051;-75
2021/07/13 19:29:31;;;;;;;17.43;9.00;;;;;;;26.56;71.39;94566.44;10551240;28;20031;-76
2021/07/13 19:40:13;;;;;;;11.80;9.40;;;;;;;25.96;78.10;94587.44;10460499;28;20303;-76
2021/07/13 19:45:16;;;;;;;13.60;9.52;;;;;;;25.75;79.50;94574.22;10513619;28;20036;-76
2021/07/13 19:50:16;;;;;;;12.98;8.63;;;;;;;25.56;79.14;94586.16;10538344;28;20034;-76
2021/07/13 19:55:17;;;;;;;13.13;9.33;;;;;;;25.13;82.39;94585.53;10541467;28;20042;-77
2021/07/13 20:00:17;;;;;;;13.90;10.27;;;;;;;24.97;83.29;94586.50;10545262;28;20277;-77
2021/07/13 20:05:17;;;;;;;18.58;9.20;;;;;;;24.86;85.31;94582.78;10548268;28;20032;-77
2021/07/13 20:10:18;;;;;;;13.03;8.60;;;;;;;24.91;84.02;94579.72;10549896;28;20028;-76
2021/07/13 20:15:18;;;;;;;14.27;8.70;;;;;;;24.94;85.94;94578.97;10541131;28;20145;-76
2021/07/13 20:20:19;;;;;;;14.93;9.10;;;;;;;24.82;89.32;94587.44;10533661;28;20016;-77
2021/07/13 20:25:19;;;;;;;11.75;8.30;;;;;;;24.65;89.99;94588.72;10538492;28;20652;-77
2021/07/13 20:30:20;;;;;;;11.35;9.05;;;;;;;24.42;93.01;94591.44;10560778;28;20035;-78
2021/07/13 20:35:21;;;;;;;11.52;9.13;;;;;;;24.14;94.86;94595.25;10567589;28;20921;-78
2021/07/13 20:40:21;;;;;;;10.43;8.65;;;;;;;24.09;96.02;94593.59;10548880;28;20526;-77
2021/07/13 20:45:22;;;;;;;12.90;8.60;;;;;;;23.92;97.46;94596.78;10569526;28;20035;-78
2021/07/13 20:50:22;;;;;;;13.73;8.80;;;;;;;23.72;99.04;94600.31;10570079;28;20086;-77
2021/07/13 20:55:23;;;;;;;13.77;8.80;;;;;;;23.63;99.34;94599.72;10567946;28;20039;-77
2021/07/13 21:00:24;;;;;;;13.75;9.35;;;;;;;23.69;99.23;94602.97;10550079;28;20023;-77
2021/07/13 21:05:25;;;;;;;13.50;9.98;;;;;;;23.72;99.41;94600.31;10568755;28;20034;-77
2021/07/13 21:10:25;;;;;;;12.07;9.50;;;;;;;23.38;100.00;94597.25;10549709;28;20036;-77
2021/07/13 21:15:26;;;;;;;13.40;8.07;;;;;;;23.33;98.84;94592.06;10551952;28;20030;-77
2021/07/13 21:20:26;;;;;;;13.57;9.20;;;;;;;23.38;99.22;94596.44;10568223;28;20297;-77
2021/07/13 21:25:27;;;;;;;18.20;8.88;;;;;;;23.18;100.00;94593.69;10567548;28;20075;-77
2021/07/13 21:30:28;;;;;;;10.70;8.63;;;;;;;23.14;100.00;94594.75;10570936;28;20100;-77
2021/07/13 21:35:29;;;;;;;13.27;8.97;;;;;;;23.10;100.00;94591.91;10569682;28;20028;-77
2021/07/13 21:40:30;;;;;;;22.15;9.75;;;;;;;23.16;99.88;94600.66;10568944;28;20463;-77
2021/07/13 21:45:30;;;;;;;10.32;8.57;;;;;;;23.21;99.81;94600.41;10568166;28;20030;-77
2021/07/13 21:50:34;;;;;;;13.32;8.63;;;;;;;23.19;99.12;94599.94;10568052;28;20027;-77
2021/07/13 21:55:34;;;;;;;13.85;8.65;;;;;;;23.09;97.60;94604.00;10568292;28;20034;-77
2021/07/13 22:00:35;;;;;;;9.40;7.27;;;;;;;23.07;96.52;94609.06;10568140;28;20030;-77
2021/07/13 22:05:35;;;;;;;17.30;8.63;;;;;;;23.08;95.29;94605.19;10567276;28;20875;-77
2021/07/13 22:10:38;;;;;;;9.75;7.80;;;;;;;23.18;93.14;94610.13;10565941;28;20300;-77
2021/07/13 22:15:38;;;;;;;12.52;7.75;;;;;;;23.29;93.50;94613.13;10566343;28;20142;-77
2021/07/13 22:20:38;;;;;;;12.10;7.13;;;;;;;23.26;92.93;94613.84;10565969;28;20032;-77
2021/07/13 22:25:39;;;;;;;10.33;7.63;;;;;;;23.19;92.31;94617.22;10566381;28;20058;-77
2021/07/13 22:30:39;;;;;;;8.77;6.60;;;;;;;23.20;92.51;94618.00;10567426;28;20035;-76
2021/07/13 22:35:40;;;;;;;10.20;7.80;;;;;;;23.21;91.06;94611.38;10570173;28;20161;-77
2021/07/13 22:40:40;;;;;;;11.80;6.73;;;;;;;23.07;92.86;94624.72;10573764;28;20398;-77
2021/07/13 22:45:41;;;;;;;10.40;7.35;;;;;;;23.04;93.80;94616.03;10574213;28;20285;-77
2021/07/13 22:50:41;;;;;;;9.65;7.15;;;;;;;22.86;95.21;94621.09;10557023;28;20077;-77
2021/07/13 22:55:41;;;;;;;11.77;6.40;;;;;;;22.78;96.37;94615.81;10575737;28;20035;-78
2021/07/13 23:00:42;;;;;;;11.47;7.67;;;;;;;22.67;96.10;94623.75;10575309;28;20360;-77
2021/07/13 23:05:42;;;;;;;11.40;7.77;;;;;;;22.66;95.68;94627.63;10575261;28;20118;-77
2021/07/13 23:10:43;;;;;;;9.13;7.00;;;;;;;22.66;94.81;94622.97;10571203;28;20680;-77